Lake Tapawingo, Missouri
Current Conditions -  °F | °C
As of 8:53 PM on Friday 21 Nov 2014 (Local Time) from KLXT Reporting Station
Overcast Overcast  
Wind Chill: 42°   Ceiling: 1400
Heat Index: 47°   Visibility: 10mi
Dew Point: 41°   Wind: 10mph
Humidity: 80%   Direction: 170°S
Pressure: 30.07"   Gusts: 20mph
Location:  39.019°N, 94.3003°W
Report Text: KLXT 220253Z AUTO 17009G17KT 10SM OVC014 08/05 A3007 RMK AO2 SLP189 T00830050 58003
Loading
Personal Weather Stations






























Interactive Weather Map New forecast layout! Learn more

10-Day Weather Forecast

Advertisements
Track Severe Weather on mobile